Yatesville, Georgia
Current Conditions -  °F | °C
As of 6:15 PM on Thursday 27 Nov 2014 (Local Time) from KOPN Reporting Station
Clear Clear  
Wind Chill: 39°   Ceiling: Unl
Heat Index: 43°   Visibility: 10mi
Dew Point: 30°   Wind: 7mph
Humidity: 61%   Direction: 320°NW
Pressure: 30.34"   Gusts: NA
Location:  32.91°N, 84.14°W
Report Text: KOPN 272315Z AUTO 32006KT 10SM CLR 06/M01 A3034 RMK AO2
Loading
Personal Weather Stations






























Interactive Weather Map New forecast layout! Learn more

10-Day Weather Forecast

Advertisements
Track Severe Weather on mobile